createdAt,value
2022-11-09T00:00:05.345Z,1.80
2022-11-09T00:02:31.824Z,1.77
2022-11-09T00:04:58.228Z,2.30
2022-11-09T00:07:24.656Z,1.80
2022-11-09T00:09:51.095Z,2.30
2022-11-09T00:12:17.532Z,1.93
2022-11-09T00:14:43.965Z,2.00
2022-11-09T00:17:10.429Z,1.87
2022-11-09T00:19:36.831Z,1.80
2022-11-09T00:22:03.240Z,1.90
2022-11-09T00:24:29.703Z,2.10
2022-11-09T00:26:56.106Z,1.80
2022-11-09T00:29:22.548Z,1.63
2022-11-09T00:31:49.744Z,1.83
2022-11-09T00:34:16.149Z,1.80
2022-11-09T00:36:43.221Z,1.70
2022-11-09T00:39:09.597Z,2.20
2022-11-09T00:41:36.030Z,2.00
2022-11-09T00:44:02.442Z,2.00
2022-11-09T00:46:29.295Z,2.70
2022-11-09T00:48:56.129Z,2.10
2022-11-09T00:51:22.570Z,1.90
2022-11-09T00:53:49.158Z,2.23
2022-11-09T00:56:15.758Z,2.00
2022-11-09T00:58:42.144Z,2.53
2022-11-09T01:01:12.043Z,1.87
2022-11-09T01:03:39.111Z,2.13
2022-11-09T01:06:05.903Z,2.30
2022-11-09T01:08:35.893Z,2.03
2022-11-09T01:11:07.085Z,1.70
2022-11-09T01:13:33.802Z,2.20
2022-11-09T01:16:00.371Z,2.30
2022-11-09T01:18:26.787Z,1.90
2022-11-09T01:20:53.259Z,2.17
2022-11-09T01:23:20.773Z,2.00
2022-11-09T01:25:47.442Z,2.30
2022-11-09T01:28:13.876Z,2.30
2022-11-09T01:30:42.760Z,2.43
2022-11-09T01:33:11.400Z,2.20
2022-11-09T01:35:39.787Z,2.17
2022-11-09T01:38:07.578Z,2.10
2022-11-09T01:40:35.637Z,1.90
2022-11-09T01:43:21.290Z,2.27
2022-11-09T01:46:05.644Z,1.83
2022-11-09T01:48:48.728Z,2.07
2022-11-09T01:51:28.218Z,1.87
2022-11-09T01:54:01.962Z,2.00
2022-11-09T01:56:29.298Z,2.03
2022-11-09T01:59:00.577Z,2.20
2022-11-09T02:01:27.633Z,1.90
2022-11-09T02:04:02.931Z,2.40
2022-11-09T02:06:30.312Z,1.77
2022-11-09T02:09:12.800Z,2.20
2022-11-09T02:11:39.281Z,1.80
2022-11-09T02:14:06.081Z,1.93
2022-11-09T02:16:32.633Z,1.77
2022-11-09T02:19:02.889Z,1.90
2022-11-09T02:21:31.080Z,1.87
2022-11-09T02:23:58.461Z,2.30
2022-11-09T02:26:33.770Z,2.10
2022-11-09T02:29:03.359Z,2.20
2022-11-09T02:31:33.812Z,1.90
2022-11-09T02:34:05.081Z,2.43
2022-11-09T02:36:31.515Z,2.27
2022-11-09T02:38:58.118Z,1.80
2022-11-09T02:41:24.970Z,2.40
2022-11-09T02:43:52.491Z,2.17
2022-11-09T02:46:35.965Z,1.80
2022-11-09T02:49:02.909Z,1.90
2022-11-09T02:51:29.363Z,2.10
2022-11-09T02:53:55.977Z,1.83
2022-11-09T02:56:22.702Z,1.93
2022-11-09T02:58:49.294Z,1.77
2022-11-09T03:01:15.970Z,2.10
2022-11-09T03:03:42.409Z,1.70
2022-11-09T03:06:08.826Z,2.13
2022-11-09T03:08:35.240Z,1.97
2022-11-09T03:11:01.821Z,1.80
2022-11-09T03:13:28.364Z,1.93
2022-11-09T03:15:54.836Z,1.90
2022-11-09T03:18:21.269Z,2.07
2022-11-09T03:20:47.700Z,2.33
2022-11-09T03:23:14.142Z,2.43
2022-11-09T03:25:40.558Z,1.80
2022-11-09T03:28:07.944Z,1.97
2022-11-09T03:30:34.724Z,2.17
2022-11-09T03:33:03.338Z,2.00
2022-11-09T03:35:29.749Z,2.30
2022-11-09T03:37:56.353Z,1.90
2022-11-09T03:40:22.748Z,1.70
2022-11-09T03:42:49.223Z,2.00
2022-11-09T03:45:17.385Z,1.83
2022-11-09T03:47:45.024Z,1.80
2022-11-09T03:50:12.869Z,2.00
2022-11-09T03:52:39.350Z,2.13
2022-11-09T03:55:06.329Z,2.20
2022-11-09T03:57:32.772Z,2.17
2022-11-09T03:59:59.169Z,1.87
2022-11-09T04:02:25.584Z,2.20
2022-11-09T04:04:51.975Z,1.93
2022-11-09T04:07:18.447Z,2.00
2022-11-09T04:09:44.917Z,1.90
2022-11-09T04:12:11.427Z,1.90
2022-11-09T04:14:37.824Z,2.20
2022-11-09T04:17:04.378Z,2.03
2022-11-09T04:19:31.761Z,2.37
2022-11-09T04:21:58.177Z,2.23
2022-11-09T04:24:24.561Z,1.70
2022-11-09T04:26:50.991Z,2.07
2022-11-09T04:29:17.386Z,1.90
2022-11-09T04:31:43.871Z,1.90
2022-11-09T04:34:10.279Z,1.93
2022-11-09T04:36:36.682Z,2.30
2022-11-09T04:39:03.166Z,1.80
2022-11-09T04:41:29.573Z,2.23
2022-11-09T04:43:56.046Z,1.90
2022-11-09T04:46:22.473Z,2.00
2022-11-09T04:48:48.959Z,2.10
2022-11-09T04:51:15.454Z,1.90
2022-11-09T04:53:41.906Z,1.90
2022-11-09T04:56:08.470Z,1.80
2022-11-09T04:58:34.974Z,1.80
2022-11-09T05:01:10.052Z,1.80
2022-11-09T05:03:36.798Z,1.70
2022-11-09T05:06:26.188Z,1.90
2022-11-09T05:08:53.681Z,1.63
2022-11-09T05:11:20.115Z,2.00
2022-11-09T05:13:46.768Z,1.83
2022-11-09T05:16:13.414Z,1.90
2022-11-09T05:18:39.882Z,1.90
2022-11-09T05:21:06.526Z,1.70
2022-11-09T05:23:51.482Z,1.60
2022-11-09T05:26:18.807Z,1.77
2022-11-09T05:28:45.346Z,1.83
2022-11-09T05:31:11.762Z,1.83
2022-11-09T05:33:38.197Z,1.60
2022-11-09T05:36:04.985Z,1.97
2022-11-09T05:38:32.079Z,1.87
2022-11-09T05:40:58.612Z,1.70
2022-11-09T05:43:25.033Z,1.60
2022-11-09T05:45:51.442Z,1.80
2022-11-09T05:48:18.504Z,1.80
2022-11-09T05:50:45.210Z,1.90
2022-11-09T05:53:12.236Z,1.90
2022-11-09T05:55:38.911Z,2.00
2022-11-09T05:58:05.777Z,2.37
2022-11-09T06:00:32.607Z,1.90
2022-11-09T06:03:09.730Z,2.10
2022-11-09T06:05:37.739Z,1.63
2022-11-09T06:08:14.214Z,1.60
2022-11-09T06:10:41.688Z,1.50
2022-11-09T06:13:08.219Z,2.07
2022-11-09T06:15:34.747Z,1.93
2022-11-09T06:18:01.132Z,1.80
2022-11-09T06:20:28.323Z,1.73
2022-11-09T06:23:03.080Z,1.87
2022-11-09T06:25:31.631Z,1.80
2022-11-09T06:27:58.363Z,1.70
2022-11-09T06:30:27.131Z,2.40
2022-11-09T06:33:01.527Z,2.00
2022-11-09T06:35:28.349Z,2.03
2022-11-09T06:37:59.175Z,2.23
2022-11-09T06:40:25.888Z,1.97
2022-11-09T06:42:52.336Z,1.80
2022-11-09T06:45:18.771Z,2.07
2022-11-09T06:47:45.357Z,1.93
2022-11-09T06:50:12.403Z,1.90
2022-11-09T06:52:38.835Z,1.73
2022-11-09T06:55:06.113Z,1.63
2022-11-09T06:57:32.543Z,2.20
2022-11-09T07:00:00.174Z,1.60
2022-11-09T07:02:26.593Z,2.00
2022-11-09T07:04:53.048Z,2.27
2022-11-09T07:07:23.607Z,1.83
2022-11-09T07:09:52.961Z,1.70
2022-11-09T07:12:19.384Z,2.50
2022-11-09T07:14:45.765Z,1.70
2022-11-09T07:17:12.148Z,2.00
2022-11-09T07:19:38.587Z,1.90
2022-11-09T07:22:05.234Z,1.77
2022-11-09T07:24:31.672Z,1.87
2022-11-09T07:26:58.078Z,1.80
2022-11-09T07:29:24.502Z,2.10
2022-11-09T07:31:50.921Z,1.70
2022-11-09T07:34:17.344Z,2.03
2022-11-09T07:36:44.190Z,1.90
2022-11-09T07:39:10.645Z,1.97
2022-11-09T07:41:37.282Z,1.90
2022-11-09T07:44:03.913Z,1.70
2022-11-09T07:46:30.370Z,1.70
2022-11-09T07:48:56.831Z,2.07
2022-11-09T07:51:23.312Z,2.00
2022-11-09T07:53:49.894Z,1.60
2022-11-09T07:56:16.425Z,1.73
2022-11-09T07:58:42.884Z,1.70
2022-11-09T08:01:10.453Z,1.80
2022-11-09T08:03:37.216Z,1.93
2022-11-09T08:06:03.831Z,1.83
2022-11-09T08:08:30.214Z,1.63
2022-11-09T08:10:57.459Z,1.73
2022-11-09T08:13:24.390Z,1.83
2022-11-09T08:15:51.058Z,1.70
2022-11-09T08:18:20.416Z,1.83
2022-11-09T08:20:47.551Z,2.30
2022-11-09T08:23:15.533Z,2.00
2022-11-09T08:25:42.401Z,2.50
2022-11-09T08:28:13.526Z,2.13
2022-11-09T08:30:41.093Z,2.40
2022-11-09T08:33:07.532Z,2.03
2022-11-09T08:35:34.456Z,2.00
2022-11-09T08:38:03.921Z,2.17
2022-11-09T08:40:31.576Z,1.83
2022-11-09T08:43:06.140Z,1.93
2022-11-09T08:45:34.062Z,1.97
2022-11-09T08:48:01.246Z,1.83
2022-11-09T08:50:29.343Z,1.90
2022-11-09T08:52:56.088Z,1.50
2022-11-09T08:55:22.875Z,2.03
2022-11-09T08:57:49.314Z,2.03
2022-11-09T09:00:16.255Z,1.70
2022-11-09T09:02:42.670Z,2.23
2022-11-09T09:05:09.071Z,1.80
2022-11-09T09:07:35.497Z,1.97
2022-11-09T09:10:01.951Z,2.60
2022-11-09T09:12:28.423Z,1.70
2022-11-09T09:14:55.217Z,2.17
2022-11-09T09:17:21.640Z,1.83
2022-11-09T09:19:50.171Z,2.00
2022-11-09T09:22:16.754Z,1.70
2022-11-09T09:24:48.089Z,1.80
2022-11-09T09:27:14.584Z,1.87
2022-11-09T09:29:41.072Z,1.60
2022-11-09T09:32:07.480Z,1.80
2022-11-09T09:34:33.937Z,2.30
2022-11-09T09:37:00.356Z,1.70
2022-11-09T09:39:26.890Z,1.70
2022-11-09T09:41:56.400Z,1.77
2022-11-09T09:44:32.117Z,1.77
2022-11-09T09:47:01.670Z,2.00
2022-11-09T09:49:30.208Z,2.27
2022-11-09T09:52:22.711Z,2.10
2022-11-09T09:55:00.436Z,1.50
2022-11-09T09:57:27.897Z,2.00
2022-11-09T09:59:58.259Z,2.20
2022-11-09T10:02:27.824Z,2.00
2022-11-09T10:04:56.908Z,1.90
2022-11-09T10:07:53.890Z,1.90
2022-11-09T10:10:32.886Z,2.70
2022-11-09T10:13:29.931Z,1.80
2022-11-09T10:16:25.147Z,1.80
2022-11-09T10:19:10.371Z,1.90
2022-11-09T10:21:48.703Z,2.03
2022-11-09T10:24:31.176Z,1.77
2022-11-09T10:26:59.745Z,1.70
2022-11-09T10:29:33.735Z,1.60
2022-11-09T10:32:09.950Z,1.70
2022-11-09T10:34:44.214Z,1.73
2022-11-09T10:37:15.673Z,1.90
2022-11-09T10:40:18.863Z,2.17
2022-11-09T10:42:51.327Z,1.57
2022-11-09T10:45:42.048Z,1.80
2022-11-09T10:48:10.064Z,1.53
2022-11-09T10:50:47.656Z,1.93
2022-11-09T10:53:28.651Z,1.87
2022-11-09T10:56:02.426Z,1.87
2022-11-09T10:58:39.953Z,2.00
2022-11-09T11:01:13.886Z,1.50
2022-11-09T11:03:41.437Z,1.67
2022-11-09T11:06:37.015Z,1.67
2022-11-09T11:09:06.658Z,1.80
2022-11-09T11:11:36.982Z,1.40
2022-11-09T11:14:23.625Z,1.73
2022-11-09T11:16:53.147Z,1.70
2022-11-09T11:19:34.255Z,1.40
2022-11-09T11:22:27.452Z,1.73
2022-11-09T11:24:55.311Z,2.00
2022-11-09T11:27:27.520Z,1.87
2022-11-09T11:30:03.456Z,1.93
2022-11-09T11:32:29.936Z,2.37
2022-11-09T11:35:01.074Z,1.60
2022-11-09T11:37:50.900Z,1.83
2022-11-09T11:40:22.404Z,2.07
2022-11-09T11:43:11.292Z,1.60
2022-11-09T11:45:42.787Z,1.40
2022-11-09T11:48:30.565Z,2.20
2022-11-09T11:51:06.619Z,2.73
2022-11-09T11:53:51.176Z,1.87
2022-11-09T11:56:24.763Z,1.73
2022-11-09T11:59:29.476Z,1.43
2022-11-09T12:02:14.578Z,1.60
2022-11-09T12:05:04.584Z,1.40
2022-11-09T12:07:43.010Z,1.60
2022-11-09T12:10:31.261Z,2.03
2022-11-09T12:13:12.737Z,1.43
2022-11-09T12:15:51.688Z,1.33
2022-11-09T12:18:34.565Z,1.43
2022-11-09T12:21:22.383Z,1.47
2022-11-09T12:24:02.395Z,1.37
2022-11-09T12:26:55.727Z,1.30
2022-11-09T12:29:49.938Z,1.20
2022-11-09T12:32:47.833Z,1.07
2022-11-09T12:35:36.573Z,1.60
2022-11-09T12:38:10.220Z,1.60
2022-11-09T12:40:49.502Z,1.40
2022-11-09T12:43:45.852Z,1.50
2022-11-09T12:46:13.805Z,1.40
2022-11-09T12:48:41.421Z,1.83
2022-11-09T12:51:09.848Z,1.77
2022-11-09T12:53:41.329Z,2.07
2022-11-09T12:56:31.269Z,1.50
2022-11-09T12:59:22.857Z,1.50
2022-11-09T13:02:00.128Z,2.10
2022-11-09T13:04:28.553Z,1.93
2022-11-09T13:07:32.391Z,1.23
2022-11-09T13:10:00.995Z,1.57
2022-11-09T13:12:42.896Z,1.50
2022-11-09T13:15:29.885Z,1.63
2022-11-09T13:17:59.433Z,1.40
2022-11-09T13:23:47.813Z,1.40
2022-11-09T13:26:22.549Z,1.30
2022-11-09T13:29:40.520Z,1.60
2022-11-09T13:32:12.728Z,1.60
2022-11-09T13:34:46.563Z,1.43
2022-11-09T13:37:40.928Z,1.73
2022-11-09T13:40:32.252Z,1.70
2022-11-09T13:43:26.386Z,1.47
2022-11-09T13:45:55.727Z,1.37
2022-11-09T13:48:50.182Z,1.60
2022-11-09T13:51:26.885Z,1.40
2022-11-09T13:54:00.795Z,1.50
2022-11-09T13:56:30.381Z,1.40
2022-11-09T13:59:17.553Z,1.43
2022-11-09T14:01:55.902Z,1.43
2022-11-09T14:04:37.780Z,1.43
2022-11-09T14:07:15.777Z,1.23
2022-11-09T14:10:03.795Z,1.40
2022-11-09T14:12:58.288Z,1.27
2022-11-09T14:15:35.348Z,1.20
2022-11-09T14:18:47.104Z,1.20
2022-11-09T14:21:32.397Z,1.50
2022-11-09T14:24:03.444Z,1.13
2022-11-09T14:26:29.838Z,1.30
2022-11-09T14:28:56.222Z,1.10
2022-11-09T14:31:28.198Z,1.27
2022-11-09T14:34:02.759Z,1.37
2022-11-09T14:36:30.789Z,1.23
2022-11-09T14:38:58.689Z,1.13
2022-11-09T14:41:26.748Z,1.50
2022-11-09T14:43:55.423Z,1.30
2022-11-09T14:46:24.856Z,1.60
2022-11-09T14:48:56.612Z,1.60
2022-11-09T14:51:30.106Z,1.43
2022-11-09T14:53:57.544Z,1.40
2022-11-09T14:56:24.538Z,1.87
2022-11-09T14:58:51.366Z,1.30
2022-11-09T15:01:17.752Z,1.43
2022-11-09T15:03:44.903Z,1.10
2022-11-09T15:06:16.431Z,1.40
2022-11-09T15:08:55.828Z,1.30
2022-11-09T15:11:41.064Z,1.57
2022-11-09T15:14:19.674Z,1.57
2022-11-09T15:16:49.575Z,1.30
2022-11-09T15:19:21.941Z,1.80
2022-11-09T15:21:48.529Z,1.20
2022-11-09T15:24:17.014Z,1.60
2022-11-09T15:26:48.988Z,1.60
2022-11-09T15:29:38.127Z,1.13
2022-11-09T15:32:10.709Z,1.60
2022-11-09T15:34:56.545Z,1.67
2022-11-09T15:37:32.123Z,1.57
2022-11-09T15:39:58.939Z,1.30
2022-11-09T15:42:26.518Z,1.80
2022-11-09T15:44:57.992Z,1.83
2022-11-09T15:47:37.819Z,1.60
2022-11-09T15:50:14.962Z,1.30
2022-11-09T15:52:44.340Z,1.67
2022-11-09T15:55:15.937Z,1.40
2022-11-09T15:57:42.827Z,1.33
2022-11-09T16:00:19.537Z,1.83
2022-11-09T16:02:47.434Z,1.63
2022-11-09T16:05:13.985Z,1.40
2022-11-09T16:07:53.766Z,1.77
2022-11-09T16:10:23.224Z,1.27
2022-11-09T16:12:53.119Z,1.37
2022-11-09T16:15:20.023Z,1.40
2022-11-09T16:17:49.583Z,1.60
2022-11-09T16:20:19.946Z,1.67
2022-11-09T16:22:47.021Z,1.60
2022-11-09T16:25:14.018Z,1.30
2022-11-09T16:27:50.109Z,2.53
2022-11-09T16:30:18.033Z,1.33
2022-11-09T16:32:44.467Z,1.20
2022-11-09T16:35:28.000Z,1.70
2022-11-09T16:37:56.497Z,1.50
2022-11-09T16:40:23.258Z,1.20
2022-11-09T16:42:51.731Z,1.37
2022-11-09T16:45:18.908Z,1.40
2022-11-09T16:47:49.257Z,1.50
2022-11-09T16:50:16.198Z,1.53
2022-11-09T16:52:42.633Z,1.40
2022-11-09T16:55:09.610Z,1.33
2022-11-09T16:57:36.778Z,1.40
2022-11-09T17:00:05.845Z,1.37
2022-11-09T17:02:32.524Z,1.87
2022-11-09T17:04:59.004Z,1.40
2022-11-09T17:07:25.477Z,1.43
2022-11-09T17:09:51.921Z,1.50
2022-11-09T17:12:18.558Z,1.90
2022-11-09T17:14:44.972Z,1.50
2022-11-09T17:17:11.420Z,1.90
2022-11-09T17:19:38.191Z,1.70
2022-11-09T17:22:04.625Z,1.57
2022-11-09T17:24:31.711Z,1.80
2022-11-09T17:26:58.193Z,1.70
2022-11-09T17:29:24.725Z,1.47
2022-11-09T17:31:51.238Z,1.50
2022-11-09T17:34:17.671Z,2.03
2022-11-09T17:39:30.462Z,2.10
2022-11-09T17:41:56.946Z,1.70
2022-11-09T17:44:23.391Z,1.53
2022-11-09T17:46:49.939Z,2.07
2022-11-09T17:49:16.365Z,1.83
2022-11-09T17:51:42.979Z,1.50
2022-11-09T17:54:09.411Z,1.70
2022-11-09T17:56:35.911Z,1.67
2022-11-09T17:59:04.267Z,1.10
2022-11-09T18:01:30.763Z,1.57
2022-11-09T18:03:57.302Z,1.50
2022-11-09T18:06:24.358Z,1.47
2022-11-09T18:09:10.884Z,1.43
2022-11-09T18:11:37.340Z,1.40
2022-11-09T18:14:03.879Z,1.20
2022-11-09T18:16:30.385Z,1.40
2022-11-09T18:19:01.647Z,2.33
2022-11-09T18:21:28.629Z,1.93
2022-11-09T18:23:55.216Z,1.47
2022-11-09T18:26:21.959Z,1.60
2022-11-09T18:28:48.369Z,1.93
2022-11-09T18:31:15.043Z,1.27
2022-11-09T18:33:42.874Z,1.70
2022-11-09T18:36:15.491Z,1.40
2022-11-09T18:38:43.110Z,1.57
2022-11-09T18:41:22.043Z,1.40
2022-11-09T18:43:49.955Z,1.30
2022-11-09T18:46:18.361Z,1.40
2022-11-09T18:48:45.289Z,1.63
2022-11-09T18:51:12.525Z,1.77
2022-11-09T18:53:44.090Z,1.60
2022-11-09T18:56:18.462Z,1.97
2022-11-09T18:58:46.183Z,2.03
2022-11-09T19:01:12.865Z,2.27
2022-11-09T19:03:39.431Z,2.43
2022-11-09T19:06:07.972Z,2.83
2022-11-09T19:08:53.584Z,2.00
2022-11-09T19:11:20.068Z,2.80
2022-11-09T19:13:46.537Z,2.10
2022-11-09T19:16:14.244Z,2.17
2022-11-09T19:18:41.171Z,2.50
2022-11-09T19:21:28.497Z,2.57
2022-11-09T19:23:55.926Z,2.20
2022-11-09T19:26:22.652Z,2.70
2022-11-09T19:28:49.056Z,3.00
2022-11-09T19:31:16.824Z,3.10
2022-11-09T19:33:43.285Z,2.80
2022-11-09T19:38:56.957Z,3.00
2022-11-09T19:41:24.694Z,3.50
2022-11-09T19:43:58.292Z,3.57
2022-11-09T19:46:26.085Z,3.13
2022-11-09T19:48:52.605Z,2.97
2022-11-09T19:51:19.155Z,3.27
2022-11-09T19:53:59.516Z,3.03
2022-11-09T19:56:28.807Z,3.23
2022-11-09T19:58:58.352Z,3.27
2022-11-09T20:01:24.975Z,3.57
2022-11-09T20:03:53.057Z,3.23
2022-11-09T20:06:20.824Z,2.90
2022-11-09T20:08:47.751Z,3.43
2022-11-09T20:11:36.455Z,3.20
2022-11-09T20:14:06.812Z,3.80
2022-11-09T20:16:33.878Z,3.40
2022-11-09T20:19:01.593Z,3.90
2022-11-09T20:21:28.155Z,3.83
2022-11-09T20:23:54.850Z,3.90
2022-11-09T20:26:21.258Z,3.40
2022-11-09T20:28:47.650Z,4.43
2022-11-09T20:31:21.537Z,4.33
2022-11-09T20:33:48.623Z,4.20
2022-11-09T20:36:15.269Z,4.40
2022-11-09T20:38:41.737Z,4.57
2022-11-09T20:41:10.777Z,4.70
2022-11-09T20:43:37.746Z,5.37
2022-11-09T20:46:15.851Z,4.83
2022-11-09T20:48:58.023Z,4.83
2022-11-09T20:51:24.898Z,4.07
2022-11-09T20:53:51.732Z,4.13
2022-11-09T20:56:19.103Z,4.50
2022-11-09T20:58:45.728Z,4.30
2022-11-09T21:01:18.295Z,4.50
2022-11-09T21:03:45.261Z,5.00
2022-11-09T21:06:12.711Z,4.30
2022-11-09T21:08:39.242Z,4.37
2022-11-09T21:11:06.923Z,5.03
2022-11-09T21:13:33.657Z,4.80
2022-11-09T21:16:14.415Z,4.83
2022-11-09T21:18:41.797Z,4.97
2022-11-09T21:21:10.952Z,4.87
2022-11-09T21:23:56.500Z,4.33
2022-11-09T21:26:42.306Z,5.17
2022-11-09T21:29:32.880Z,4.27
2022-11-09T21:31:59.681Z,4.70
2022-11-09T21:34:26.398Z,4.50
2022-11-09T21:36:52.800Z,4.17
2022-11-09T21:39:19.227Z,4.07
2022-11-09T21:41:46.258Z,4.80
2022-11-09T21:44:12.902Z,4.10
2022-11-09T21:46:41.169Z,4.50
2022-11-09T21:49:08.678Z,3.60
2022-11-09T21:51:36.345Z,4.63
2022-11-09T21:54:03.104Z,4.47
2022-11-09T21:56:29.976Z,3.73
2022-11-09T21:58:56.450Z,4.50
2022-11-09T22:01:23.099Z,3.87
2022-11-09T22:03:50.305Z,4.17
2022-11-09T22:06:17.152Z,4.27
2022-11-09T22:08:44.690Z,4.00
2022-11-09T22:11:13.471Z,3.90
2022-11-09T22:13:59.218Z,4.27
2022-11-09T22:16:26.567Z,4.20
2022-11-09T22:19:11.754Z,4.13
2022-11-09T22:21:38.296Z,4.40
2022-11-09T22:24:05.166Z,4.03
2022-11-09T22:26:31.937Z,4.13
2022-11-09T22:28:59.111Z,4.80
2022-11-09T22:31:26.215Z,4.13
2022-11-09T22:33:52.894Z,4.27
2022-11-09T22:36:19.392Z,4.03
2022-11-09T22:38:46.504Z,4.33
2022-11-09T22:41:14.572Z,3.67
2022-11-09T22:43:42.602Z,3.83
2022-11-09T22:46:15.014Z,4.33
2022-11-09T22:48:43.419Z,4.27
2022-11-09T22:51:12.247Z,4.47
2022-11-09T22:53:39.014Z,4.83
2022-11-09T22:56:05.803Z,4.40
2022-11-09T22:58:32.208Z,4.40
2022-11-09T23:01:11.333Z,4.13
2022-11-09T23:03:38.010Z,4.10
2022-11-09T23:06:09.355Z,3.67
2022-11-09T23:08:39.166Z,4.63
2022-11-09T23:11:07.421Z,4.30
2022-11-09T23:13:34.737Z,3.90
2022-11-09T23:16:04.515Z,3.57
2022-11-09T23:18:49.447Z,3.93
2022-11-09T23:21:16.252Z,3.37
2022-11-09T23:23:42.874Z,3.80
2022-11-09T23:26:10.135Z,4.10
2022-11-09T23:28:37.109Z,4.10
2022-11-09T23:31:11.678Z,4.00
2022-11-09T23:33:38.292Z,4.47
2022-11-09T23:36:05.898Z,4.30
2022-11-09T23:38:33.756Z,3.80
2022-11-09T23:41:04.680Z,3.60
2022-11-09T23:43:31.547Z,4.83
2022-11-09T23:46:06.453Z,3.97
2022-11-09T23:48:32.872Z,4.20
2022-11-09T23:51:00.523Z,3.87
2022-11-09T23:53:28.570Z,4.00
2022-11-09T23:55:59.185Z,4.07
2022-11-09T23:58:25.616Z,4.30
